AEA45L LHBP-EDDS
Flight info
| Callsign | AEA45L |
|---|---|
| Flight time | 1h 11m |
| Altitude | 34000 |
| Route | GILEP DCT ZOLKU DCT ARSIN DCT BARUG DCT MATIG DCT TITIG L173 DODIL T127 TEKSI TEKSI1W |
| Aircraft | B738/M-SDE2E3FGHIRWXY/LB1 |
Departure
| Time | 2026-05-07 13:52 |
|---|---|
| Airport | Budapest Liszt Ferenc International Airport (LHBP) |
Arrival
| Time | 2026-05-07 15:03 |
|---|---|
| Airport | Stuttgart Airport (EDDS) |
| Time | Latitude | Longitude | Altitude | Speed | Heading |
|---|---|---|---|---|---|
| 2026-05-07 13:35 | 47.43358 | 19.25843 | 471 ft | 0 kts | 221° |
| 2026-05-07 13:42 | 47.43362 | 19.25848 | 471 ft | 2 kts | 219° |
| 2026-05-07 13:42 | 47.43373 | 19.25862 | 471 ft | 2 kts | 222° |
| 2026-05-07 13:42 | 47.43384 | 19.25877 | 472 ft | 2 kts | 221° |
| 2026-05-07 13:43 | 47.43395 | 19.25891 | 472 ft | 2 kts | 221° |
| 2026-05-07 13:43 | 47.43407 | 19.25906 | 473 ft | 2 kts | 221° |
| 2026-05-07 13:43 | 47.43416 | 19.25923 | 473 ft | 2 kts | 257° |
| 2026-05-07 13:43 | 47.43415 | 19.25944 | 473 ft | 2 kts | 298° |
| 2026-05-07 13:44 | 47.43411 | 19.25953 | 473 ft | 1 kts | 318° |
| 2026-05-07 13:44 | 47.43408 | 19.25958 | 473 ft | 0 kts | 312° |
| 2026-05-07 13:46 | 47.43420 | 19.25939 | 473 ft | 9 kts | 310° |
| 2026-05-07 13:47 | 47.43464 | 19.25855 | 473 ft | 10 kts | 301° |
| 2026-05-07 13:47 | 47.43448 | 19.25772 | 472 ft | 9 kts | 216° |
| 2026-05-07 13:47 | 47.43389 | 19.25692 | 469 ft | 16 kts | 223° |
| 2026-05-07 13:47 | 47.43302 | 19.25570 | 465 ft | 15 kts | 236° |
| 2026-05-07 13:48 | 47.43330 | 19.25428 | 464 ft | 14 kts | 279° |
| 2026-05-07 13:48 | 47.43279 | 19.25297 | 459 ft | 16 kts | 224° |
| 2026-05-07 13:48 | 47.43188 | 19.25182 | 455 ft | 18 kts | 220° |
| 2026-05-07 13:48 | 47.43160 | 19.25144 | 453 ft | 0 kts | 222° |
| 2026-05-07 13:49 | 47.43150 | 19.25131 | 453 ft | 2 kts | 223° |
| 2026-05-07 13:49 | 47.43144 | 19.25123 | 452 ft | 0 kts | 223° |
| 2026-05-07 13:50 | 47.43141 | 19.25118 | 452 ft | 4 kts | 223° |
| 2026-05-07 13:50 | 47.43092 | 19.25046 | 450 ft | 11 kts | 236° |
| 2026-05-07 13:50 | 47.43101 | 19.24936 | 448 ft | 10 kts | 308° |
| 2026-05-07 13:50 | 47.43111 | 19.24919 | 448 ft | 0 kts | 311° |
| 2026-05-07 13:51 | 47.43111 | 19.24918 | 448 ft | 0 kts | 311° |
| 2026-05-07 13:51 | 47.43215 | 19.24744 | 445 ft | 57 kts | 310° |
| 2026-05-07 13:51 | 47.43641 | 19.24054 | 439 ft | 122 kts | 310° |
| 2026-05-07 13:52 | 47.44344 | 19.22931 | 498 ft | 171 kts | 310° |
| 2026-05-07 13:52 | 47.45158 | 19.21683 | 1216 ft | 168 kts | 310° |
| 2026-05-07 13:52 | 47.45960 | 19.20500 | 1974 ft | 169 kts | 308° |
| 2026-05-07 13:52 | 47.46742 | 19.19165 | 2397 ft | 177 kts | 306° |
| 2026-05-07 13:53 | 47.47573 | 19.17723 | 2806 ft | 190 kts | 308° |
| 2026-05-07 13:53 | 47.48463 | 19.16179 | 3093 ft | 206 kts | 301° |
| 2026-05-07 13:53 | 47.48973 | 19.14160 | 3436 ft | 217 kts | 272° |
| 2026-05-07 13:53 | 47.48813 | 19.11915 | 3784 ft | 230 kts | 252° |
| 2026-05-07 13:54 | 47.48114 | 19.09719 | 4250 ft | 241 kts | 234° |
| 2026-05-07 13:54 | 47.46848 | 19.08018 | 4652 ft | 255 kts | 210° |
| 2026-05-07 13:54 | 47.45238 | 19.06879 | 5185 ft | 263 kts | 204° |
| 2026-05-07 13:54 | 47.43546 | 19.05817 | 5889 ft | 264 kts | 204° |
| 2026-05-07 13:55 | 47.41880 | 19.04707 | 6663 ft | 263 kts | 206° |
| 2026-05-07 13:55 | 47.40220 | 19.03539 | 7330 ft | 267 kts | 207° |
| 2026-05-07 13:55 | 47.38561 | 19.02282 | 7966 ft | 270 kts | 215° |
| 2026-05-07 13:55 | 47.37334 | 19.00289 | 8621 ft | 271 kts | 244° |
| 2026-05-07 13:56 | 47.36949 | 18.97576 | 9306 ft | 276 kts | 271° |
| 2026-05-07 13:56 | 47.37255 | 18.94775 | 10039 ft | 280 kts | 280° |
| 2026-05-07 13:56 | 47.37679 | 18.91928 | 10506 ft | 292 kts | 279° |
| 2026-05-07 13:56 | 47.38085 | 18.88960 | 10871 ft | 306 kts | 278° |
| 2026-05-07 13:57 | 47.38479 | 18.85804 | 11272 ft | 320 kts | 278° |
| 2026-05-07 13:57 | 47.38868 | 18.82537 | 11863 ft | 327 kts | 277° |
| 2026-05-07 13:57 | 47.39252 | 18.79260 | 12553 ft | 330 kts | 277° |
| 2026-05-07 13:57 | 47.39644 | 18.75910 | 13227 ft | 334 kts | 277° |
| 2026-05-07 13:58 | 47.40039 | 18.72514 | 13928 ft | 338 kts | 277° |
| 2026-05-07 13:58 | 47.40433 | 18.69142 | 14644 ft | 341 kts | 277° |
| 2026-05-07 13:58 | 47.40836 | 18.65677 | 15347 ft | 344 kts | 277° |
| 2026-05-07 13:58 | 47.41240 | 18.62187 | 16017 ft | 348 kts | 276° |
| 2026-05-07 13:59 | 47.41681 | 18.58674 | 16705 ft | 352 kts | 278° |
| 2026-05-07 13:59 | 47.42285 | 18.55148 | 17331 ft | 358 kts | 282° |
| 2026-05-07 13:59 | 47.43010 | 18.51622 | 17984 ft | 362 kts | 283° |
| 2026-05-07 13:59 | 47.43773 | 18.48097 | 18587 ft | 366 kts | 283° |
| 2026-05-07 14:00 | 47.44550 | 18.44511 | 19239 ft | 368 kts | 283° |
| 2026-05-07 14:00 | 47.45306 | 18.40939 | 19869 ft | 371 kts | 283° |
| 2026-05-07 14:00 | 47.46061 | 18.37299 | 20447 ft | 374 kts | 282° |
| 2026-05-07 14:00 | 47.46819 | 18.33596 | 21021 ft | 378 kts | 282° |
| 2026-05-07 14:01 | 47.47576 | 18.29867 | 21611 ft | 380 kts | 282° |
| 2026-05-07 14:01 | 47.48334 | 18.26116 | 22233 ft | 382 kts | 281° |
| 2026-05-07 14:01 | 47.49042 | 18.22375 | 22739 ft | 385 kts | 279° |
| 2026-05-07 14:01 | 47.49698 | 18.18514 | 23267 ft | 387 kts | 278° |
| 2026-05-07 14:02 | 47.50321 | 18.14643 | 23818 ft | 389 kts | 278° |
| 2026-05-07 14:02 | 47.50933 | 18.10779 | 24338 ft | 392 kts | 278° |
| 2026-05-07 14:02 | 47.51557 | 18.06827 | 24832 ft | 395 kts | 277° |
| 2026-05-07 14:02 | 47.52182 | 18.02887 | 25434 ft | 395 kts | 277° |
| 2026-05-07 14:03 | 47.52811 | 17.98968 | 25923 ft | 398 kts | 278° |
| 2026-05-07 14:03 | 47.53455 | 17.94975 | 26409 ft | 400 kts | 277° |
| 2026-05-07 14:03 | 47.54101 | 17.90972 | 26911 ft | 401 kts | 277° |
| 2026-05-07 14:03 | 47.54750 | 17.86955 | 27402 ft | 402 kts | 277° |
| 2026-05-07 14:04 | 47.55340 | 17.82910 | 27765 ft | 404 kts | 274° |
| 2026-05-07 14:04 | 47.55724 | 17.78794 | 28135 ft | 404 kts | 269° |
| 2026-05-07 14:04 | 47.55901 | 17.74719 | 28655 ft | 402 kts | 266° |
| 2026-05-07 14:04 | 47.55979 | 17.70591 | 29120 ft | 402 kts | 265° |
| 2026-05-07 14:05 | 47.56015 | 17.66440 | 29528 ft | 404 kts | 264° |
| 2026-05-07 14:05 | 47.56039 | 17.62335 | 30071 ft | 402 kts | 265° |
| 2026-05-07 14:05 | 47.56068 | 17.58232 | 30767 ft | 397 kts | 264° |
| 2026-05-07 14:05 | 47.56101 | 17.54149 | 31159 ft | 399 kts | 264° |
| 2026-05-07 14:06 | 47.56135 | 17.50025 | 31444 ft | 404 kts | 264° |
| 2026-05-07 14:06 | 47.56170 | 17.45881 | 31715 ft | 408 kts | 264° |
| 2026-05-07 14:06 | 47.56206 | 17.41686 | 31989 ft | 412 kts | 264° |
| 2026-05-07 14:06 | 47.56246 | 17.37431 | 32262 ft | 414 kts | 265° |
| 2026-05-07 14:07 | 47.56289 | 17.33202 | 32527 ft | 412 kts | 264° |
| 2026-05-07 14:07 | 47.56333 | 17.28928 | 32795 ft | 410 kts | 264° |
| 2026-05-07 14:07 | 47.56374 | 17.24739 | 33056 ft | 409 kts | 264° |
| 2026-05-07 14:07 | 47.56412 | 17.20544 | 33319 ft | 408 kts | 264° |
| 2026-05-07 14:08 | 47.56450 | 17.16399 | 33580 ft | 408 kts | 264° |
| 2026-05-07 14:08 | 47.56487 | 17.12219 | 33847 ft | 408 kts | 264° |
| 2026-05-07 14:08 | 47.56520 | 17.08018 | 33949 ft | 408 kts | 264° |
| 2026-05-07 14:09 | 47.56583 | 16.99688 | 33954 ft | 404 kts | 264° |
| 2026-05-07 14:09 | 47.56638 | 16.91349 | 33944 ft | 411 kts | 264° |
| 2026-05-07 14:10 | 47.56683 | 16.82808 | 33944 ft | 418 kts | 265° |
| 2026-05-07 14:10 | 47.57205 | 16.74271 | 33944 ft | 425 kts | 275° |
| 2026-05-07 14:11 | 47.58838 | 16.65804 | 33945 ft | 433 kts | 282° |
| 2026-05-07 14:11 | 47.60898 | 16.57406 | 33940 ft | 433 kts | 284° |
| 2026-05-07 14:12 | 47.62996 | 16.49067 | 33943 ft | 434 kts | 284° |
| 2026-05-07 14:12 | 47.65067 | 16.40684 | 33943 ft | 434 kts | 283° |
| 2026-05-07 14:13 | 47.67090 | 16.32341 | 33941 ft | 432 kts | 282° |
| 2026-05-07 14:13 | 47.69097 | 16.23960 | 33934 ft | 431 kts | 282° |
| 2026-05-07 14:14 | 47.71084 | 16.15606 | 33945 ft | 431 kts | 282° |
| 2026-05-07 14:14 | 47.73062 | 16.07236 | 33942 ft | 431 kts | 282° |
| 2026-05-07 14:15 | 47.75040 | 15.98826 | 33943 ft | 431 kts | 283° |
| 2026-05-07 14:15 | 47.77008 | 15.90436 | 33946 ft | 431 kts | 283° |
| 2026-05-07 14:16 | 47.78956 | 15.82096 | 33934 ft | 432 kts | 283° |
| 2026-05-07 14:16 | 47.80917 | 15.73664 | 33929 ft | 433 kts | 283° |
| 2026-05-07 14:17 | 47.82877 | 15.65213 | 33943 ft | 432 kts | 283° |
| 2026-05-07 14:17 | 47.84819 | 15.56808 | 33947 ft | 432 kts | 283° |
| 2026-05-07 14:18 | 47.86753 | 15.48392 | 33964 ft | 432 kts | 283° |
| 2026-05-07 14:18 | 47.88687 | 15.39939 | 33960 ft | 431 kts | 282° |
| 2026-05-07 14:19 | 47.90139 | 15.31398 | 33940 ft | 424 kts | 274° |
| 2026-05-07 14:19 | 47.91043 | 15.22722 | 33962 ft | 423 kts | 272° |
| 2026-05-07 14:20 | 47.91828 | 15.14045 | 33956 ft | 424 kts | 272° |
| 2026-05-07 14:20 | 47.92611 | 15.05385 | 33940 ft | 423 kts | 272° |
| 2026-05-07 14:21 | 47.93412 | 14.96684 | 33954 ft | 425 kts | 272° |
| 2026-05-07 14:21 | 47.94215 | 14.88013 | 33958 ft | 426 kts | 273° |
| 2026-05-07 14:22 | 47.95023 | 14.79275 | 33961 ft | 426 kts | 273° |
| 2026-05-07 14:22 | 47.95821 | 14.70597 | 33958 ft | 426 kts | 273° |
| 2026-05-07 14:23 | 47.96618 | 14.61839 | 33968 ft | 426 kts | 273° |
| 2026-05-07 14:23 | 47.97406 | 14.53124 | 33962 ft | 425 kts | 273° |
| 2026-05-07 14:24 | 47.98190 | 14.44360 | 33967 ft | 427 kts | 273° |
| 2026-05-07 14:24 | 47.98966 | 14.35595 | 33982 ft | 429 kts | 273° |
| 2026-05-07 14:25 | 47.99739 | 14.26811 | 33978 ft | 429 kts | 273° |
| 2026-05-07 14:25 | 48.00507 | 14.17992 | 33980 ft | 428 kts | 273° |
| 2026-05-07 14:26 | 48.01133 | 14.09160 | 33991 ft | 430 kts | 271° |
| 2026-05-07 14:26 | 48.01609 | 14.00317 | 33998 ft | 430 kts | 270° |
| 2026-05-07 14:27 | 48.02075 | 13.91483 | 33995 ft | 428 kts | 271° |
| 2026-05-07 14:27 | 48.02556 | 13.82638 | 33984 ft | 428 kts | 271° |
| 2026-05-07 14:28 | 48.03041 | 13.73808 | 33976 ft | 428 kts | 271° |
| 2026-05-07 14:28 | 48.03527 | 13.64964 | 33978 ft | 427 kts | 271° |
| 2026-05-07 14:29 | 48.04008 | 13.56133 | 33989 ft | 429 kts | 271° |
| 2026-05-07 14:29 | 48.04483 | 13.47294 | 33981 ft | 429 kts | 272° |
| 2026-05-07 14:30 | 48.04953 | 13.38448 | 33985 ft | 429 kts | 272° |
| 2026-05-07 14:30 | 48.05416 | 13.29578 | 33992 ft | 430 kts | 271° |
| 2026-05-07 14:31 | 48.05873 | 13.20693 | 33993 ft | 431 kts | 271° |
| 2026-05-07 14:31 | 48.06324 | 13.11811 | 33998 ft | 431 kts | 271° |
| 2026-05-07 14:32 | 48.06770 | 13.02875 | 33976 ft | 432 kts | 272° |
| 2026-05-07 14:32 | 48.06989 | 12.98433 | 33773 ft | 428 kts | 272° |
| 2026-05-07 14:32 | 48.07206 | 12.94047 | 33591 ft | 418 kts | 272° |
| 2026-05-07 14:32 | 48.07413 | 12.89840 | 33415 ft | 408 kts | 272° |
| 2026-05-07 14:33 | 48.07616 | 12.85667 | 33239 ft | 399 kts | 272° |
| 2026-05-07 14:33 | 48.07815 | 12.81537 | 33052 ft | 395 kts | 272° |
| 2026-05-07 14:33 | 48.08006 | 12.77493 | 32861 ft | 398 kts | 272° |
| 2026-05-07 14:33 | 48.08198 | 12.73356 | 32583 ft | 401 kts | 272° |
| 2026-05-07 14:34 | 48.08390 | 12.69197 | 32293 ft | 405 kts | 272° |
| 2026-05-07 14:34 | 48.08586 | 12.64924 | 31921 ft | 412 kts | 272° |
| 2026-05-07 14:34 | 48.08781 | 12.60669 | 31533 ft | 413 kts | 273° |
| 2026-05-07 14:34 | 48.08995 | 12.56394 | 31109 ft | 412 kts | 275° |
| 2026-05-07 14:35 | 48.09441 | 12.52208 | 30614 ft | 413 kts | 281° |
| 2026-05-07 14:35 | 48.10213 | 12.48098 | 30092 ft | 415 kts | 288° |
| 2026-05-07 14:35 | 48.11263 | 12.44093 | 29556 ft | 418 kts | 292° |
| 2026-05-07 14:35 | 48.12450 | 12.40070 | 29015 ft | 421 kts | 293° |
| 2026-05-07 14:36 | 48.13629 | 12.36104 | 28493 ft | 422 kts | 292° |
| 2026-05-07 14:36 | 48.14792 | 12.32092 | 28110 ft | 419 kts | 291° |
| 2026-05-07 14:36 | 48.15915 | 12.28090 | 28000 ft | 420 kts | 291° |
| 2026-05-07 14:36 | 48.17032 | 12.23975 | 27996 ft | 425 kts | 290° |
| 2026-05-07 14:37 | 48.18117 | 12.19869 | 27993 ft | 425 kts | 290° |
| 2026-05-07 14:37 | 48.20227 | 12.11654 | 27263 ft | 421 kts | 290° |
| 2026-05-07 14:37 | 48.21257 | 12.07568 | 26859 ft | 416 kts | 290° |
| 2026-05-07 14:38 | 48.22271 | 12.03515 | 26460 ft | 415 kts | 290° |
| 2026-05-07 14:38 | 48.23268 | 11.99513 | 25980 ft | 416 kts | 290° |
| 2026-05-07 14:38 | 48.24272 | 11.95469 | 25441 ft | 413 kts | 290° |
| 2026-05-07 14:38 | 48.25238 | 11.91568 | 24904 ft | 408 kts | 289° |
| 2026-05-07 14:39 | 48.26212 | 11.87627 | 24355 ft | 404 kts | 290° |
| 2026-05-07 14:39 | 48.27176 | 11.83720 | 23810 ft | 400 kts | 290° |
| 2026-05-07 14:39 | 48.28142 | 11.79797 | 23252 ft | 397 kts | 290° |
| 2026-05-07 14:39 | 48.29090 | 11.75945 | 22707 ft | 394 kts | 290° |
| 2026-05-07 14:40 | 48.30022 | 11.72149 | 22170 ft | 391 kts | 290° |
| 2026-05-07 14:40 | 48.30959 | 11.68325 | 21621 ft | 387 kts | 289° |
| 2026-05-07 14:40 | 48.31871 | 11.64598 | 21096 ft | 382 kts | 289° |
| 2026-05-07 14:40 | 48.32773 | 11.60904 | 20791 ft | 372 kts | 290° |
| 2026-05-07 14:41 | 48.33654 | 11.57296 | 20514 ft | 362 kts | 289° |
| 2026-05-07 14:41 | 48.34500 | 11.53822 | 20255 ft | 353 kts | 289° |
| 2026-05-07 14:41 | 48.35341 | 11.50361 | 20037 ft | 350 kts | 289° |
| 2026-05-07 14:41 | 48.36179 | 11.46914 | 19996 ft | 350 kts | 289° |
| 2026-05-07 14:42 | 48.37011 | 11.43486 | 19999 ft | 354 kts | 289° |
| 2026-05-07 14:42 | 48.37854 | 11.40006 | 19989 ft | 354 kts | 289° |
| 2026-05-07 14:42 | 48.38696 | 11.36520 | 19999 ft | 353 kts | 289° |
| 2026-05-07 14:42 | 48.39527 | 11.33074 | 20002 ft | 354 kts | 289° |
| 2026-05-07 14:43 | 48.40369 | 11.29574 | 20002 ft | 351 kts | 289° |
| 2026-05-07 14:43 | 48.41182 | 11.26186 | 19997 ft | 343 kts | 289° |
| 2026-05-07 14:43 | 48.41985 | 11.22838 | 20004 ft | 339 kts | 289° |
| 2026-05-07 14:43 | 48.42787 | 11.19482 | 20002 ft | 341 kts | 289° |
| 2026-05-07 14:44 | 48.43602 | 11.16066 | 19750 ft | 345 kts | 289° |
| 2026-05-07 14:44 | 48.44408 | 11.12688 | 19234 ft | 344 kts | 289° |
| 2026-05-07 14:44 | 48.45204 | 11.09340 | 18750 ft | 341 kts | 289° |
| 2026-05-07 14:44 | 48.45992 | 11.06025 | 18361 ft | 336 kts | 289° |
| 2026-05-07 14:45 | 48.46773 | 11.02733 | 17972 ft | 331 kts | 289° |
| 2026-05-07 14:45 | 48.47545 | 10.99482 | 17586 ft | 328 kts | 289° |
| 2026-05-07 14:45 | 48.48304 | 10.96268 | 17209 ft | 327 kts | 289° |
| 2026-05-07 14:45 | 48.49067 | 10.93038 | 16847 ft | 325 kts | 289° |
| 2026-05-07 14:46 | 48.49819 | 10.89851 | 16593 ft | 323 kts | 289° |
| 2026-05-07 14:46 | 48.50565 | 10.86693 | 16339 ft | 323 kts | 289° |
| 2026-05-07 14:46 | 48.51325 | 10.83471 | 16079 ft | 322 kts | 289° |
| 2026-05-07 14:46 | 48.52066 | 10.80335 | 15821 ft | 320 kts | 289° |
| 2026-05-07 14:47 | 48.52814 | 10.77164 | 15448 ft | 321 kts | 289° |
| 2026-05-07 14:47 | 48.53555 | 10.74009 | 15071 ft | 317 kts | 289° |
| 2026-05-07 14:47 | 48.54285 | 10.70897 | 14702 ft | 313 kts | 289° |
| 2026-05-07 14:47 | 48.54997 | 10.67854 | 14343 ft | 310 kts | 289° |
| 2026-05-07 14:48 | 48.55712 | 10.64802 | 13959 ft | 307 kts | 289° |
| 2026-05-07 14:48 | 48.56421 | 10.61778 | 13586 ft | 306 kts | 289° |
| 2026-05-07 14:48 | 48.57126 | 10.58765 | 13208 ft | 305 kts | 289° |
| 2026-05-07 14:48 | 48.57820 | 10.55797 | 12844 ft | 302 kts | 289° |
| 2026-05-07 14:49 | 48.58515 | 10.52833 | 12466 ft | 299 kts | 289° |
| 2026-05-07 14:49 | 48.59209 | 10.49863 | 12077 ft | 296 kts | 289° |
| 2026-05-07 14:49 | 48.59884 | 10.46966 | 11707 ft | 294 kts | 289° |
| 2026-05-07 14:49 | 48.60558 | 10.44067 | 11326 ft | 291 kts | 289° |
| 2026-05-07 14:50 | 48.61221 | 10.41206 | 10950 ft | 289 kts | 289° |
| 2026-05-07 14:50 | 48.61876 | 10.38368 | 10598 ft | 286 kts | 289° |
| 2026-05-07 14:50 | 48.62525 | 10.35556 | 10358 ft | 279 kts | 289° |
| 2026-05-07 14:50 | 48.63146 | 10.32854 | 10187 ft | 271 kts | 288° |
| 2026-05-07 14:51 | 48.63766 | 10.30150 | 9814 ft | 271 kts | 288° |
| 2026-05-07 14:51 | 48.64394 | 10.27405 | 9431 ft | 271 kts | 288° |
| 2026-05-07 14:51 | 48.65008 | 10.24718 | 9058 ft | 271 kts | 288° |
| 2026-05-07 14:51 | 48.65623 | 10.22015 | 8691 ft | 270 kts | 288° |
| 2026-05-07 14:52 | 48.66230 | 10.19357 | 8448 ft | 265 kts | 288° |
| 2026-05-07 14:52 | 48.66826 | 10.16748 | 8247 ft | 259 kts | 288° |
| 2026-05-07 14:52 | 48.67407 | 10.14197 | 8049 ft | 256 kts | 288° |
| 2026-05-07 14:52 | 48.67979 | 10.11680 | 7975 ft | 255 kts | 288° |
| 2026-05-07 14:53 | 48.68564 | 10.09104 | 7976 ft | 257 kts | 288° |
| 2026-05-07 14:53 | 48.69115 | 10.06519 | 7973 ft | 257 kts | 284° |
| 2026-05-07 14:53 | 48.69495 | 10.03937 | 7970 ft | 249 kts | 280° |
| 2026-05-07 14:53 | 48.69789 | 10.01349 | 7775 ft | 249 kts | 279° |
| 2026-05-07 14:54 | 48.70067 | 9.98790 | 7522 ft | 245 kts | 279° |
| 2026-05-07 14:54 | 48.70350 | 9.96293 | 7293 ft | 240 kts | 280° |
| 2026-05-07 14:54 | 48.70640 | 9.93808 | 7090 ft | 237 kts | 280° |
| 2026-05-07 14:54 | 48.70931 | 9.91386 | 6894 ft | 237 kts | 281° |
| 2026-05-07 14:55 | 48.71232 | 9.88925 | 6702 ft | 236 kts | 281° |
| 2026-05-07 14:55 | 48.71528 | 9.86484 | 6551 ft | 236 kts | 281° |
| 2026-05-07 14:55 | 48.71823 | 9.84003 | 6395 ft | 237 kts | 281° |
| 2026-05-07 14:55 | 48.72113 | 9.81554 | 6247 ft | 237 kts | 281° |
| 2026-05-07 14:56 | 48.72402 | 9.79121 | 6097 ft | 240 kts | 281° |
| 2026-05-07 14:56 | 48.72702 | 9.76591 | 5973 ft | 241 kts | 281° |
| 2026-05-07 14:56 | 48.72994 | 9.74107 | 5979 ft | 241 kts | 281° |
| 2026-05-07 14:56 | 48.73289 | 9.71625 | 5974 ft | 240 kts | 281° |
| 2026-05-07 14:57 | 48.73578 | 9.69191 | 5898 ft | 231 kts | 281° |
| 2026-05-07 14:57 | 48.73856 | 9.66831 | 5685 ft | 227 kts | 281° |
| 2026-05-07 14:57 | 48.74131 | 9.64500 | 5470 ft | 223 kts | 281° |
| 2026-05-07 14:57 | 48.74390 | 9.62212 | 5260 ft | 220 kts | 281° |
| 2026-05-07 14:58 | 48.74645 | 9.59941 | 5055 ft | 218 kts | 281° |
| 2026-05-07 14:58 | 48.74905 | 9.57694 | 4934 ft | 217 kts | 282° |
| 2026-05-07 14:58 | 48.75134 | 9.55415 | 4726 ft | 220 kts | 274° |
| 2026-05-07 14:58 | 48.74963 | 9.53098 | 4522 ft | 220 kts | 256° |
| 2026-05-07 14:59 | 48.74507 | 9.50937 | 4339 ft | 214 kts | 253° |
| 2026-05-07 14:59 | 48.74053 | 9.48819 | 4132 ft | 209 kts | 255° |
| 2026-05-07 14:59 | 48.73622 | 9.46726 | 3976 ft | 203 kts | 255° |
| 2026-05-07 14:59 | 48.73225 | 9.44746 | 3973 ft | 189 kts | 256° |
| 2026-05-07 15:00 | 48.72868 | 9.42837 | 3813 ft | 190 kts | 257° |
| 2026-05-07 15:00 | 48.72514 | 9.40925 | 3531 ft | 184 kts | 257° |
| 2026-05-07 15:00 | 48.72181 | 9.39152 | 3282 ft | 175 kts | 257° |
| 2026-05-07 15:00 | 48.71858 | 9.37429 | 3096 ft | 164 kts | 258° |
| 2026-05-07 15:01 | 48.71547 | 9.35770 | 2822 ft | 160 kts | 257° |
| 2026-05-07 15:01 | 48.71247 | 9.34168 | 2630 ft | 160 kts | 257° |
| 2026-05-07 15:01 | 48.70943 | 9.32547 | 2387 ft | 157 kts | 256° |
| 2026-05-07 15:01 | 48.70648 | 9.30981 | 2193 ft | 153 kts | 256° |
| 2026-05-07 15:02 | 48.70356 | 9.29433 | 1985 ft | 155 kts | 256° |
| 2026-05-07 15:02 | 48.70041 | 9.27858 | 1769 ft | 155 kts | 256° |
| 2026-05-07 15:02 | 48.69756 | 9.26298 | 1572 ft | 153 kts | 258° |
| 2026-05-07 15:02 | 48.69467 | 9.24751 | 1368 ft | 149 kts | 255° |
| 2026-05-07 15:03 | 48.69187 | 9.23296 | 1280 ft | 135 kts | 257° |
| 2026-05-07 15:03 | 48.68977 | 9.22147 | 1278 ft | 84 kts | 255° |
| 2026-05-07 15:03 | 48.68844 | 9.21410 | 1278 ft | 53 kts | 257° |
| 2026-05-07 15:03 | 48.68845 | 9.20930 | 1278 ft | 25 kts | 282° |
| 2026-05-07 15:04 | 48.68863 | 9.20819 | 1278 ft | 0 kts | 283° |
| 2026-05-07 15:05 | 48.68864 | 9.20812 | 1278 ft | 4 kts | 283° |
| 2026-05-07 15:05 | 48.68901 | 9.20716 | 1278 ft | 16 kts | 314° |
| 2026-05-07 15:05 | 48.68992 | 9.20573 | 1278 ft | 19 kts | 313° |
| 2026-05-07 15:05 | 48.69060 | 9.20440 | 1278 ft | 13 kts | 272° |
| 2026-05-07 15:06 | 48.69038 | 9.20312 | 1278 ft | 11 kts | 253° |
| 2026-05-07 15:06 | 48.68991 | 9.20271 | 1278 ft | 8 kts | 165° |
| 2026-05-07 15:06 | 48.68962 | 9.20286 | 1278 ft | 2 kts | 163° |